createdAt,value
2023-01-26T00:01:17.106Z,18.08
2023-01-26T00:03:44.478Z,17.40
2023-01-26T00:06:13.693Z,18.50
2023-01-26T00:08:42.283Z,17.80
2023-01-26T00:11:11.150Z,17.85
2023-01-26T00:13:38.543Z,18.63
2023-01-26T00:16:14.039Z,17.25
2023-01-26T00:18:41.795Z,17.63
2023-01-26T00:21:11.952Z,17.20
2023-01-26T00:23:39.293Z,17.63
2023-01-26T00:26:07.124Z,16.95
2023-01-26T00:28:34.479Z,16.13
2023-01-26T00:31:10.836Z,17.23
2023-01-26T00:33:38.157Z,17.13
2023-01-26T00:36:06.079Z,16.25
2023-01-26T00:38:33.493Z,16.83
2023-01-26T00:41:01.992Z,17.10
2023-01-26T00:43:29.330Z,16.98
2023-01-26T00:45:56.633Z,16.92
2023-01-26T00:48:24.956Z,17.52
2023-01-26T00:50:52.735Z,16.38
2023-01-26T00:53:20.090Z,15.43
2023-01-26T00:55:47.441Z,14.57
2023-01-26T00:58:14.764Z,15.43
2023-01-26T01:00:42.170Z,15.90
2023-01-26T01:03:11.032Z,16.30
2023-01-26T01:05:38.588Z,15.43
2023-01-26T01:08:06.098Z,15.63
2023-01-26T01:10:35.366Z,15.90
2023-01-26T01:13:02.759Z,15.93
2023-01-26T01:15:30.120Z,15.80
2023-01-26T01:17:57.441Z,16.08
2023-01-26T01:20:24.780Z,15.88
2023-01-26T01:22:52.321Z,17.02
2023-01-26T01:25:19.705Z,16.05
2023-01-26T01:27:47.124Z,15.98
2023-01-26T01:30:14.673Z,15.18
2023-01-26T01:32:42.249Z,15.00
2023-01-26T01:35:09.641Z,16.35
2023-01-26T01:37:37.084Z,16.30
2023-01-26T01:40:04.693Z,16.15
2023-01-26T01:42:33.587Z,15.27
2023-01-26T01:45:19.721Z,14.93
2023-01-26T01:47:47.016Z,15.45
2023-01-26T01:50:15.527Z,14.82
2023-01-26T01:52:42.839Z,14.98
2023-01-26T01:55:10.649Z,15.63
2023-01-26T01:57:51.710Z,16.00
2023-01-26T02:00:21.408Z,17.98
2023-01-26T02:03:11.314Z,17.38
2023-01-26T02:06:13.910Z,15.85
2023-01-26T02:08:44.608Z,15.80
2023-01-26T02:11:17.880Z,16.13
2023-01-26T02:13:46.276Z,15.75
2023-01-26T02:16:13.655Z,17.30
2023-01-26T02:18:41.757Z,16.65
2023-01-26T02:21:14.265Z,16.58
2023-01-26T02:23:53.534Z,17.30
2023-01-26T02:26:23.599Z,17.33
2023-01-26T02:28:52.046Z,16.08
2023-01-26T02:31:19.650Z,15.73
2023-01-26T02:33:48.520Z,15.98
2023-01-26T02:36:29.143Z,16.02
2023-01-26T02:39:12.405Z,17.15
2023-01-26T02:41:58.360Z,16.33
2023-01-26T02:44:25.762Z,17.15
2023-01-26T02:46:53.423Z,16.20
2023-01-26T02:49:39.689Z,16.27
2023-01-26T02:52:07.143Z,15.85
2023-01-26T02:54:54.295Z,16.67
2023-01-26T02:57:21.680Z,16.63
2023-01-26T02:59:49.075Z,15.68
2023-01-26T03:02:16.620Z,16.67
2023-01-26T03:04:44.343Z,16.55
2023-01-26T03:07:11.825Z,15.48
2023-01-26T03:09:39.147Z,17.35
2023-01-26T03:12:09.140Z,16.67
2023-01-26T03:14:36.430Z,15.43
2023-01-26T03:17:03.835Z,15.95
2023-01-26T03:19:49.593Z,17.17
2023-01-26T03:22:35.412Z,16.50
2023-01-26T03:25:21.276Z,16.08
2023-01-26T03:27:50.733Z,16.55
2023-01-26T03:30:19.194Z,16.60
2023-01-26T03:32:48.394Z,16.15
2023-01-26T03:35:22.517Z,17.20
2023-01-26T03:37:54.757Z,13.40
2023-01-26T03:41:01.042Z,15.40
2023-01-26T03:43:46.776Z,15.93
2023-01-26T03:46:32.607Z,15.73
2023-01-26T03:49:18.502Z,16.13
2023-01-26T03:52:05.253Z,15.57
2023-01-26T03:54:50.993Z,16.30
2023-01-26T03:57:18.375Z,15.77
2023-01-26T03:59:46.023Z,15.27
2023-01-26T04:02:37.427Z,16.65
2023-01-26T04:05:24.124Z,16.52
2023-01-26T04:08:14.144Z,16.25
2023-01-26T04:10:41.611Z,16.73
2023-01-26T04:13:27.453Z,16.40
2023-01-26T04:16:19.524Z,15.77
2023-01-26T04:19:05.366Z,15.65
2023-01-26T04:21:35.961Z,15.77
2023-01-26T04:24:16.826Z,15.82
2023-01-26T04:26:44.670Z,15.68
2023-01-26T04:29:16.719Z,15.77
2023-01-26T04:31:45.859Z,16.23
2023-01-26T04:34:16.220Z,16.33
2023-01-26T04:36:44.217Z,15.85
2023-01-26T04:39:11.622Z,16.02
2023-01-26T04:41:43.056Z,16.58
2023-01-26T04:44:12.975Z,16.10
2023-01-26T04:46:40.494Z,18.50
2023-01-26T04:49:07.871Z,16.15
2023-01-26T04:51:35.227Z,15.93
2023-01-26T04:54:03.202Z,16.55
2023-01-26T04:56:33.456Z,17.08
2023-01-26T04:59:02.912Z,16.35
2023-01-26T05:01:31.334Z,16.05
2023-01-26T05:04:02.524Z,15.27
2023-01-26T05:06:31.653Z,16.85
2023-01-26T05:08:59.070Z,16.80
2023-01-26T05:11:27.506Z,15.73
2023-01-26T05:14:13.357Z,14.70
2023-01-26T05:17:04.675Z,15.23
2023-01-26T05:19:50.690Z,15.30
2023-01-26T05:22:40.728Z,14.95
2023-01-26T05:25:28.266Z,15.23
2023-01-26T05:28:03.561Z,16.00
2023-01-26T05:30:30.983Z,16.10
2023-01-26T05:33:06.865Z,15.80
2023-01-26T05:35:34.968Z,15.65
2023-01-26T05:38:03.302Z,15.13
2023-01-26T05:40:33.367Z,15.13
2023-01-26T05:43:00.984Z,15.45
2023-01-26T05:45:46.696Z,17.42
2023-01-26T05:48:15.518Z,26.90
2023-01-26T05:50:44.020Z,30.52
2023-01-26T05:53:13.901Z,29.67
2023-01-26T05:55:41.391Z,14.98
2023-01-26T05:58:08.733Z,15.68
2023-01-26T06:00:36.117Z,16.58
2023-01-26T06:03:09.209Z,16.00
2023-01-26T06:05:38.803Z,16.40
2023-01-26T06:08:22.009Z,14.95
2023-01-26T06:11:09.549Z,14.57
2023-01-26T06:13:49.578Z,14.25
2023-01-26T06:16:27.798Z,15.32
2023-01-26T06:18:56.159Z,15.00
2023-01-26T06:21:23.521Z,15.43
2023-01-26T06:23:50.845Z,14.90
2023-01-26T06:26:18.215Z,15.48
2023-01-26T06:28:46.192Z,15.18
2023-01-26T06:31:14.780Z,16.88
2023-01-26T06:33:43.120Z,14.98
2023-01-26T06:36:13.386Z,15.60
2023-01-26T06:38:46.041Z,17.05
2023-01-26T06:41:13.403Z,16.15
2023-01-26T06:43:40.901Z,15.95
2023-01-26T06:46:08.278Z,15.43
2023-01-26T06:48:36.828Z,15.50
2023-01-26T06:51:17.751Z,14.65
2023-01-26T06:53:55.378Z,15.38
2023-01-26T06:56:33.495Z,15.52
2023-01-26T06:59:19.364Z,14.80
2023-01-26T07:01:58.407Z,15.77
2023-01-26T07:04:27.018Z,16.05
2023-01-26T07:06:54.355Z,15.60
2023-01-26T07:09:21.669Z,15.80
2023-01-26T07:11:48.980Z,16.98
2023-01-26T07:14:16.350Z,16.50
2023-01-26T07:16:43.699Z,16.05
2023-01-26T07:19:11.057Z,15.88
2023-01-26T07:21:39.325Z,15.88
2023-01-26T07:24:08.125Z,15.85
2023-01-26T07:26:35.614Z,16.13
2023-01-26T07:29:04.144Z,18.30
2023-01-26T07:31:31.508Z,16.15
2023-01-26T07:33:58.878Z,16.40
2023-01-26T07:36:26.229Z,15.80
2023-01-26T07:38:53.624Z,15.95
2023-01-26T07:41:20.929Z,15.65
2023-01-26T07:43:50.099Z,16.20
2023-01-26T07:46:18.969Z,14.73
2023-01-26T07:48:46.271Z,17.02
2023-01-26T07:51:13.585Z,15.07
2023-01-26T07:53:43.410Z,14.85
2023-01-26T07:56:15.921Z,15.32
2023-01-26T07:58:43.270Z,16.10
2023-01-26T08:01:12.193Z,15.38
2023-01-26T08:03:39.585Z,15.02
2023-01-26T08:06:09.601Z,15.32
2023-01-26T08:08:41.772Z,16.00
2023-01-26T08:11:09.842Z,15.05
2023-01-26T08:13:37.441Z,14.50
2023-01-26T08:16:06.656Z,15.02
2023-01-26T08:18:33.987Z,15.48
2023-01-26T08:21:01.305Z,15.65
2023-01-26T08:23:28.723Z,16.10
2023-01-26T08:26:00.372Z,14.10
2023-01-26T08:28:27.913Z,15.27
2023-01-26T08:30:56.094Z,16.00
2023-01-26T08:33:24.294Z,15.27
2023-01-26T08:35:51.729Z,16.38
2023-01-26T08:38:19.105Z,16.08
2023-01-26T08:40:52.002Z,16.73
2023-01-26T08:43:19.318Z,16.20
2023-01-26T08:45:47.605Z,15.60
2023-01-26T08:48:14.954Z,15.70
2023-01-26T08:50:42.475Z,15.32
2023-01-26T08:53:10.297Z,14.60
2023-01-26T08:55:37.745Z,15.88
2023-01-26T08:58:05.133Z,14.38
2023-01-26T09:00:33.287Z,14.80
2023-01-26T09:03:01.410Z,14.70
2023-01-26T09:05:31.447Z,14.98
2023-01-26T09:07:58.746Z,14.90
2023-01-26T09:10:26.128Z,14.45
2023-01-26T09:12:53.430Z,14.85
2023-01-26T09:15:20.850Z,14.77
2023-01-26T09:17:51.306Z,15.00
2023-01-26T09:20:18.920Z,14.70
2023-01-26T09:22:46.418Z,15.48
2023-01-26T09:25:13.984Z,14.75
2023-01-26T09:27:41.465Z,15.85
2023-01-26T09:30:09.423Z,15.45
2023-01-26T09:32:36.852Z,15.02
2023-01-26T09:35:04.625Z,14.63
2023-01-26T09:37:31.945Z,15.23
2023-01-26T09:39:59.300Z,15.30
2023-01-26T09:42:43.961Z,14.60
2023-01-26T09:45:14.574Z,16.05
2023-01-26T09:48:06.153Z,16.05
2023-01-26T09:50:41.587Z,15.93
2023-01-26T09:53:16.982Z,15.73
2023-01-26T09:55:44.943Z,15.10
2023-01-26T09:58:31.428Z,16.10
2023-01-26T10:01:00.857Z,14.75
2023-01-26T10:03:40.278Z,15.85
2023-01-26T10:06:23.848Z,16.33
2023-01-26T10:09:32.651Z,15.88
2023-01-26T10:12:02.216Z,15.77
2023-01-26T10:14:45.389Z,15.20
2023-01-26T10:17:18.363Z,15.68
2023-01-26T10:19:48.442Z,15.05
2023-01-26T10:22:25.314Z,14.15
2023-01-26T10:24:53.163Z,16.15
2023-01-26T10:27:20.532Z,15.27
2023-01-26T10:29:47.836Z,14.38
2023-01-26T10:32:16.356Z,14.80
2023-01-26T10:34:44.807Z,14.00
2023-01-26T10:37:23.625Z,14.27
2023-01-26T10:40:00.901Z,14.60
2023-01-26T10:42:30.247Z,14.32
2023-01-26T10:45:00.209Z,14.63
2023-01-26T10:47:27.852Z,12.88
2023-01-26T10:50:23.866Z,13.70
2023-01-26T10:53:04.403Z,13.95
2023-01-26T10:55:33.093Z,13.55
2023-01-26T10:58:01.019Z,12.73
2023-01-26T11:00:33.430Z,12.30
2023-01-26T11:03:04.609Z,13.57
2023-01-26T11:05:31.991Z,13.60
2023-01-26T11:08:00.402Z,12.00
2023-01-26T11:10:38.919Z,12.20
2023-01-26T11:13:20.128Z,13.45
2023-01-26T11:15:52.287Z,14.10
2023-01-26T11:18:29.511Z,13.15
2023-01-26T11:21:17.041Z,11.82
2023-01-26T11:24:05.641Z,12.07
2023-01-26T11:27:04.884Z,12.25
2023-01-26T11:29:32.148Z,11.10
2023-01-26T11:32:25.994Z,15.25
2023-01-26T11:35:05.360Z,12.80
2023-01-26T11:37:44.202Z,14.90
2023-01-26T11:40:11.712Z,11.23
2023-01-26T11:43:05.255Z,11.88
2023-01-26T11:45:46.318Z,12.63
2023-01-26T11:48:36.553Z,12.52
2023-01-26T11:51:12.965Z,11.63
2023-01-26T11:53:58.469Z,12.27
2023-01-26T11:57:04.491Z,12.75
2023-01-26T11:59:38.943Z,11.63
2023-01-26T12:02:34.381Z,12.43
2023-01-26T12:05:08.347Z,13.45
2023-01-26T12:07:56.994Z,13.68
2023-01-26T12:10:33.472Z,12.85
2023-01-26T12:13:05.856Z,13.93
2023-01-26T12:15:34.776Z,12.48
2023-01-26T12:18:06.335Z,13.35
2023-01-26T12:20:39.615Z,12.40
2023-01-26T12:23:15.755Z,11.65
2023-01-26T12:25:46.959Z,13.63
2023-01-26T12:28:29.419Z,12.60
2023-01-26T12:31:04.564Z,13.45
2023-01-26T12:33:32.455Z,12.00
2023-01-26T12:36:25.549Z,13.55
2023-01-26T12:39:30.627Z,14.18
2023-01-26T12:44:40.240Z,12.32
2023-01-26T12:47:17.792Z,11.35
2023-01-26T12:50:23.233Z,12.57
2023-01-26T12:52:55.588Z,12.68
2023-01-26T12:55:25.336Z,13.75
2023-01-26T12:58:05.671Z,12.52
2023-01-26T13:00:34.649Z,14.85
2023-01-26T13:03:18.395Z,14.75
2023-01-26T13:06:00.618Z,14.63
2023-01-26T13:08:31.043Z,14.43
2023-01-26T13:10:59.689Z,15.43
2023-01-26T13:13:32.448Z,16.30
2023-01-26T13:16:18.234Z,15.82
2023-01-26T13:18:49.564Z,13.80
2023-01-26T13:21:40.123Z,14.38
2023-01-26T13:24:16.425Z,13.95
2023-01-26T13:26:44.735Z,15.23
2023-01-26T13:29:27.535Z,14.80
2023-01-26T13:31:55.898Z,15.18
2023-01-26T13:34:27.443Z,14.10
2023-01-26T13:36:57.982Z,13.85
2023-01-26T13:39:34.481Z,13.80
2023-01-26T13:42:01.767Z,14.15
2023-01-26T13:44:37.800Z,12.65
2023-01-26T13:47:27.088Z,13.73
2023-01-26T13:49:54.436Z,12.85
2023-01-26T13:52:26.271Z,13.30
2023-01-26T13:54:54.834Z,14.55
2023-01-26T13:57:31.664Z,13.38
2023-01-26T14:00:00.463Z,13.38
2023-01-26T14:02:31.512Z,13.10
2023-01-26T14:04:59.429Z,13.45
2023-01-26T14:07:34.093Z,13.68
2023-01-26T14:10:02.168Z,14.60
2023-01-26T14:12:30.818Z,12.77
2023-01-26T14:15:03.406Z,13.63
2023-01-26T14:17:36.675Z,13.48
2023-01-26T14:20:27.841Z,12.00
2023-01-26T14:23:14.165Z,12.48
2023-01-26T14:25:47.238Z,14.77
2023-01-26T14:28:15.928Z,16.02
2023-01-26T14:30:43.401Z,14.65
2023-01-26T14:33:15.069Z,15.15
2023-01-26T14:36:01.884Z,13.88
2023-01-26T14:38:30.272Z,13.85
2023-01-26T14:40:59.209Z,14.43
2023-01-26T14:43:27.773Z,14.27
2023-01-26T14:46:05.406Z,13.88
2023-01-26T14:48:44.839Z,13.63
2023-01-26T14:51:22.437Z,15.05
2023-01-26T14:53:51.230Z,14.60
2023-01-26T14:56:19.826Z,14.73
2023-01-26T14:58:50.552Z,13.60
2023-01-26T15:01:22.329Z,14.98
2023-01-26T15:03:51.453Z,13.73
2023-01-26T15:06:20.752Z,14.82
2023-01-26T15:09:05.544Z,13.48
2023-01-26T15:11:53.239Z,13.85
2023-01-26T15:14:35.586Z,14.25
2023-01-26T15:17:03.159Z,14.00
2023-01-26T15:19:39.891Z,19.27
2023-01-26T15:22:18.409Z,14.80
2023-01-26T15:24:45.726Z,14.20
2023-01-26T15:27:13.041Z,14.40
2023-01-26T15:29:40.386Z,13.73
2023-01-26T15:32:35.173Z,13.80
2023-01-26T15:37:50.010Z,14.40
2023-01-26T15:40:17.548Z,13.65
2023-01-26T15:42:44.965Z,14.50
2023-01-26T15:45:24.461Z,13.52
2023-01-26T15:47:51.842Z,14.18
2023-01-26T15:50:27.963Z,14.27
2023-01-26T15:52:55.768Z,14.75
2023-01-26T15:55:26.299Z,14.63
2023-01-26T15:57:53.609Z,14.60
2023-01-26T16:00:21.137Z,14.70
2023-01-26T16:02:48.473Z,14.63
2023-01-26T16:05:24.671Z,13.55
2023-01-26T16:07:52.710Z,12.73
2023-01-26T16:10:20.259Z,13.48
2023-01-26T16:12:48.393Z,13.85
2023-01-26T16:15:36.979Z,13.48
2023-01-26T16:18:04.333Z,14.95
2023-01-26T16:20:33.398Z,14.18
2023-01-26T16:23:00.840Z,13.63
2023-01-26T16:25:31.700Z,13.25
2023-01-26T16:27:59.439Z,13.95
2023-01-26T16:30:26.953Z,13.25
2023-01-26T16:32:54.256Z,13.55
2023-01-26T16:35:22.580Z,14.23
2023-01-26T16:37:50.062Z,12.98
2023-01-26T16:40:18.305Z,13.38
2023-01-26T16:42:48.349Z,14.38
2023-01-26T16:45:17.715Z,12.70
2023-01-26T16:47:45.105Z,14.32
2023-01-26T16:50:12.443Z,14.60
2023-01-26T16:52:40.445Z,13.90
2023-01-26T16:55:12.884Z,15.07
2023-01-26T16:57:44.190Z,13.63
2023-01-26T17:00:19.533Z,14.57
2023-01-26T17:02:51.888Z,14.52
2023-01-26T17:05:20.818Z,14.25
2023-01-26T17:07:48.245Z,13.98
2023-01-26T17:10:15.779Z,14.88
2023-01-26T17:12:44.255Z,14.27
2023-01-26T17:15:12.171Z,14.10
2023-01-26T17:17:39.838Z,13.45
2023-01-26T17:20:18.234Z,13.60
2023-01-26T17:22:46.577Z,13.57
2023-01-26T17:25:16.706Z,13.27
2023-01-26T17:27:45.225Z,14.05
2023-01-26T17:30:12.799Z,13.85
2023-01-26T17:32:41.563Z,13.90
2023-01-26T17:35:09.226Z,14.15
2023-01-26T17:37:37.690Z,14.10
2023-01-26T17:40:05.936Z,13.10
2023-01-26T17:42:35.028Z,12.95
2023-01-26T17:45:04.067Z,14.23
2023-01-26T17:47:34.687Z,12.48
2023-01-26T17:50:02.125Z,13.98
2023-01-26T17:52:31.343Z,12.77
2023-01-26T17:54:59.029Z,13.15
2023-01-26T17:57:26.373Z,12.52
2023-01-26T17:59:53.800Z,12.88
2023-01-26T18:02:21.175Z,13.25
2023-01-26T18:04:48.822Z,13.25
2023-01-26T18:07:16.149Z,12.95
2023-01-26T18:09:43.436Z,13.25
2023-01-26T18:12:10.799Z,12.98
2023-01-26T18:14:38.578Z,12.40
2023-01-26T18:17:05.885Z,12.40
2023-01-26T18:19:33.296Z,12.73
2023-01-26T18:22:00.654Z,11.10
2023-01-26T18:24:28.175Z,12.60
2023-01-26T18:26:55.569Z,12.55
2023-01-26T18:29:22.874Z,12.63
2023-01-26T18:31:50.271Z,12.35
2023-01-26T18:34:17.609Z,12.63
2023-01-26T18:36:44.929Z,12.65
2023-01-26T18:39:13.520Z,12.40
2023-01-26T18:41:43.239Z,12.00
2023-01-26T18:44:10.716Z,11.45
2023-01-26T18:46:38.199Z,12.48
2023-01-26T18:49:05.583Z,12.80
2023-01-26T18:51:34.606Z,12.75
2023-01-26T18:54:03.990Z,14.98
2023-01-26T18:56:31.415Z,12.50
2023-01-26T18:58:58.938Z,12.45
2023-01-26T19:01:26.825Z,11.95
2023-01-26T19:03:55.405Z,12.70
2023-01-26T19:06:23.997Z,12.93
2023-01-26T19:09:00.274Z,12.00
2023-01-26T19:11:29.107Z,13.38
2023-01-26T19:13:56.739Z,12.00
2023-01-26T19:16:24.186Z,12.23
2023-01-26T19:18:52.095Z,12.32
2023-01-26T19:21:24.528Z,12.35
2023-01-26T19:23:53.110Z,12.43
2023-01-26T19:26:22.178Z,12.48
2023-01-26T19:28:50.961Z,12.23
2023-01-26T19:31:19.453Z,13.55
2023-01-26T19:33:57.194Z,12.32
2023-01-26T19:36:24.883Z,12.40
2023-01-26T19:38:52.246Z,12.27
2023-01-26T19:41:20.038Z,13.45
2023-01-26T19:43:47.480Z,12.98
2023-01-26T19:46:15.179Z,12.55
2023-01-26T19:48:43.036Z,12.25
2023-01-26T19:51:23.710Z,12.65
2023-01-26T19:53:53.845Z,13.60
2023-01-26T19:56:31.865Z,13.90
2023-01-26T19:59:00.543Z,12.63
2023-01-26T20:01:28.783Z,12.30
2023-01-26T20:03:59.045Z,13.43
2023-01-26T20:06:28.042Z,10.88
2023-01-26T20:08:55.531Z,12.50
2023-01-26T20:11:25.194Z,11.40
2023-01-26T20:13:56.782Z,10.95
2023-01-26T20:16:24.434Z,11.20
2023-01-26T20:18:51.814Z,11.25
2023-01-26T20:21:19.217Z,10.93
2023-01-26T20:23:54.410Z,11.30
2023-01-26T20:26:23.547Z,12.50
2023-01-26T20:28:51.277Z,10.90
2023-01-26T20:31:21.138Z,11.52
2023-01-26T20:33:49.097Z,10.90
2023-01-26T20:36:18.155Z,11.95
2023-01-26T20:38:46.139Z,11.68
2023-01-26T20:41:15.337Z,12.48
2023-01-26T20:43:58.222Z,12.68
2023-01-26T20:46:26.895Z,9.55
2023-01-26T20:48:57.559Z,9.82
2023-01-26T20:51:29.443Z,9.85
2023-01-26T20:53:57.487Z,9.15
2023-01-26T20:56:25.047Z,9.32
2023-01-26T20:58:53.053Z,8.63
2023-01-26T21:01:20.601Z,9.23
2023-01-26T21:03:48.071Z,9.55
2023-01-26T21:06:18.412Z,11.02
2023-01-26T21:08:46.782Z,10.57
2023-01-26T21:11:14.876Z,11.75
2023-01-26T21:13:42.766Z,11.52
2023-01-26T21:16:11.257Z,11.80
2023-01-26T21:18:38.709Z,12.02
2023-01-26T21:21:07.087Z,11.00
2023-01-26T21:23:34.667Z,10.10
2023-01-26T21:26:03.821Z,10.82
2023-01-26T21:28:31.280Z,10.73
2023-01-26T21:31:09.609Z,9.88
2023-01-26T21:33:38.630Z,11.50
2023-01-26T21:36:06.711Z,11.30
2023-01-26T21:38:36.704Z,12.18
2023-01-26T21:41:28.648Z,11.15
2023-01-26T21:44:02.572Z,11.00
2023-01-26T21:46:30.032Z,10.82
2023-01-26T21:48:57.318Z,12.02
2023-01-26T21:51:43.500Z,11.25
2023-01-26T21:54:11.485Z,11.45
2023-01-26T21:56:38.845Z,11.02
2023-01-26T21:59:08.244Z,10.35
2023-01-26T22:01:37.123Z,10.48
2023-01-26T22:04:07.660Z,10.98
2023-01-26T22:06:35.407Z,11.05
2023-01-26T22:09:03.674Z,11.45
2023-01-26T22:11:31.093Z,11.30
2023-01-26T22:13:58.593Z,10.80
2023-01-26T22:16:26.294Z,10.02
2023-01-26T22:18:53.670Z,9.20
2023-01-26T22:21:21.039Z,9.52
2023-01-26T22:23:48.465Z,9.70
2023-01-26T22:26:19.943Z,9.73
2023-01-26T22:28:51.896Z,10.60
2023-01-26T22:31:20.001Z,10.48
2023-01-26T22:33:47.508Z,10.30
2023-01-26T22:36:15.096Z,10.88
2023-01-26T22:38:42.667Z,10.52
2023-01-26T22:41:19.753Z,11.40
2023-01-26T22:43:50.878Z,11.80
2023-01-26T22:46:19.322Z,10.88
2023-01-26T22:48:46.834Z,10.90
2023-01-26T22:51:16.756Z,12.77
2023-01-26T22:53:45.586Z,12.88
2023-01-26T22:56:12.903Z,13.30
2023-01-26T22:58:56.618Z,13.63
2023-01-26T23:03:52.993Z,11.65
2023-01-26T23:06:20.476Z,12.30
2023-01-26T23:08:47.892Z,12.10
2023-01-26T23:11:20.043Z,11.00
2023-01-26T23:13:48.233Z,10.45
2023-01-26T23:16:15.767Z,10.75
2023-01-26T23:18:43.290Z,9.82
2023-01-26T23:21:10.709Z,10.55
2023-01-26T23:23:38.433Z,9.50
2023-01-26T23:26:05.828Z,10.35
2023-01-26T23:28:38.055Z,10.15
2023-01-26T23:31:05.809Z,10.02
2023-01-26T23:33:33.561Z,10.25
2023-01-26T23:36:01.022Z,10.80
2023-01-26T23:38:28.902Z,9.85
2023-01-26T23:40:56.322Z,11.18
2023-01-26T23:43:23.818Z,10.38
2023-01-26T23:45:51.800Z,8.88
2023-01-26T23:48:19.495Z,10.60
2023-01-26T23:50:47.002Z,8.73
2023-01-26T23:53:14.460Z,8.70
2023-01-26T23:55:42.642Z,9.38
2023-01-26T23:58:10.449Z,8.77
